Time;durP1;ratioP1;P1;durP2;ratioP2;P2;SDS_P1;SDS_P2;PMS_P1;PMS_P2;Temp;Humidity;BMP_temperature;BMP_pressure;BME280_temperature;BME280_humidity;BME280_pressure;Samples;Min_cycle;Max_cycle;Signal;HPM_P1;HPM_P2
2022/12/23 00:01:53;;;;;;;;;;;7.80;99.90;;;;;;5044217;28;20323;-73
2022/12/23 00:04:25;;;;;;;;;;;7.90;99.90;;;;;;5054757;28;20407;-73
2022/12/23 00:06:56;;;;;;;;;;;7.90;99.90;;;;;;5021941;28;19925;-74
2022/12/23 00:09:29;;;;;;;;;;;7.90;99.90;;;;;;5040388;28;19948;-73
2022/12/23 00:15:06;;;;;;;;;;;8.00;99.90;;;;;;5046190;28;20341;-73
2022/12/23 00:17:42;;;;;;;;;;;7.90;99.90;;;;;;5056331;28;19987;-73
2022/12/23 00:20:14;;;;;;;;;;;8.00;99.90;;;;;;5070419;28;20417;-73
2022/12/23 00:25:40;;;;;;;;;;;7.90;99.90;;;;;;5068306;28;19924;-73
2022/12/23 00:28:12;;;;;;;;;;;7.90;99.90;;;;;;5041736;28;20371;-73
2022/12/23 00:30:52;;;;;;;;;;;7.90;99.90;;;;;;5030970;28;19968;-73
2022/12/23 00:33:20;;;;;;;;;;;7.90;99.90;;;;;;5043114;28;19932;-73
2022/12/23 00:35:47;;;;;;;;;;;7.90;99.90;;;;;;5025193;28;19925;-74
2022/12/23 00:44:04;;;;;;;;;;;8.00;99.90;;;;;;5051548;28;20311;-73
2022/12/23 00:46:36;;;;;;;;;;;8.00;99.90;;;;;;5050001;28;20295;-73
2022/12/23 00:52:00;;;;;;;;;;;8.00;99.90;;;;;;5061539;28;19963;-73
2022/12/23 00:54:32;;;;;;;;;;;8.10;99.90;;;;;;5026891;28;19925;-73
2022/12/23 00:57:04;;;;;;;;;;;8.10;99.90;;;;;;5041493;28;19925;-73
2022/12/23 00:59:35;;;;;;;;;;;8.00;99.90;;;;;;5031096;28;20002;-74
2022/12/23 01:07:33;;;;;;;;;;;8.20;99.90;;;;;;5044730;28;19929;-73
2022/12/23 01:09:59;;;;;;;;;;;8.20;99.90;;;;;;5050398;28;19971;-73
2022/12/23 01:12:31;;;;;;;;;;;8.20;99.90;;;;;;5035532;28;19931;-73
2022/12/23 01:14:58;;;;;;;;;;;8.30;99.90;;;;;;5065314;28;19986;-73
2022/12/23 01:17:24;;;;;;;;;;;8.30;99.90;;;;;;5059637;28;19931;-73
2022/12/23 01:19:56;;;;;;;;;;;8.30;99.90;;;;;;5048631;28;19932;-73
2022/12/23 01:22:22;;;;;;;;;;;8.40;99.90;;;;;;5057145;28;19928;-73
2022/12/23 01:24:54;;;;;;;;;;;8.40;99.90;;;;;;5041550;28;19925;-73
2022/12/23 01:27:21;;;;;;;;;;;8.40;99.90;;;;;;5052299;28;19947;-73
2022/12/23 01:29:47;;;;;;;;;;;8.50;99.90;;;;;;5045772;28;19978;-73
2022/12/23 01:32:19;;;;;;;;;;;8.50;99.90;;;;;;5057341;28;19936;-73
2022/12/23 01:34:50;;;;;;;;;;;8.50;99.90;;;;;;5036146;28;19924;-73
2022/12/23 01:37:22;;;;;;;;;;;8.60;99.90;;;;;;5059331;28;19932;-74
2022/12/23 01:39:54;;;;;;;;;;;8.70;99.90;;;;;;5062939;28;19931;-73
2022/12/23 01:42:44;;;;;;;;;;;8.60;99.90;;;;;;5036332;28;20571;-73
2022/12/23 01:45:33;;;;;;;;;;;8.60;99.90;;;;;;5040580;28;19924;-73
2022/12/23 01:48:02;;;;;;;;;;;8.70;99.90;;;;;;5074807;28;19929;-72
2022/12/23 01:50:38;;;;;;;;;;;8.70;99.90;;;;;;5041180;28;19978;-72
2022/12/23 01:53:07;;;;;;;;;;;8.70;99.90;;;;;;5051777;28;19925;-73
2022/12/23 01:55:41;;;;;;;;;;;8.80;99.90;;;;;;5040615;28;20500;-73
2022/12/23 01:58:37;;;;;;;;;;;8.80;99.90;;;;;;5042650;28;19925;-73
2022/12/23 02:04:02;;;;;;;;;;;8.80;99.90;;;;;;5052881;28;19931;-73
2022/12/23 02:09:33;;;;;;;;;;;8.90;99.90;;;;;;5038172;28;19931;-73
2022/12/23 02:12:08;;;;;;;;;;;8.90;99.90;;;;;;5034763;28;19925;-73
2022/12/23 02:17:56;;;;;;;;;;;9.00;99.90;;;;;;5040648;28;19924;-73
2022/12/23 02:20:28;;;;;;;;;;;9.00;99.90;;;;;;5046826;28;19924;-73
2022/12/23 02:23:05;;;;;;;;;;;9.00;99.90;;;;;;5052658;28;19954;-75
2022/12/23 02:25:51;;;;;;;;;;;9.00;99.90;;;;;;5061013;28;19924;-73
2022/12/23 02:28:27;;;;;;;;;;;9.00;99.90;;;;;;5048220;28;19925;-73
2022/12/23 02:31:01;;;;;;;;;;;9.00;99.90;;;;;;5055426;28;20043;-73
2022/12/23 02:33:36;;;;;;;;;;;9.00;99.90;;;;;;5059766;28;19924;-73
2022/12/23 02:36:19;;;;;;;;;;;9.00;99.90;;;;;;5032172;28;19932;-72
2022/12/23 02:39:02;;;;;;;;;;;9.00;99.90;;;;;;5055443;28;19933;-73
2022/12/23 02:41:33;;;;;;;;;;;9.00;99.90;;;;;;5065588;28;19931;-73
2022/12/23 02:44:38;;;;;;;;;;;9.00;99.90;;;;;;5050385;28;19940;-72
2022/12/23 02:47:11;;;;;;;;;;;9.10;99.90;;;;;;5016042;28;19924;-72
2022/12/23 02:49:44;;;;;;;;;;;9.20;99.90;;;;;;5043888;28;19978;-72
2022/12/23 02:52:12;;;;;;;;;;;9.20;99.90;;;;;;5036340;28;19935;-72
2022/12/23 02:54:48;;;;;;;;;;;9.30;99.90;;;;;;5056684;28;19929;-72
2022/12/23 02:57:18;;;;;;;;;;;9.30;99.90;;;;;;5067173;28;19928;-73
2022/12/23 02:59:50;;;;;;;;;;;9.30;99.90;;;;;;5055158;28;20409;-72
2022/12/23 03:02:17;;;;;;;;;;;9.40;99.90;;;;;;5057553;28;19925;-73
2022/12/23 03:04:49;;;;;;;;;;;9.40;99.90;;;;;;5066735;28;19928;-73
2022/12/23 03:07:32;;;;;;;;;;;9.40;99.90;;;;;;5067116;28;19928;-72
2022/12/23 03:10:11;;;;;;;;;;;9.40;99.90;;;;;;5062723;28;19924;-72
2022/12/23 03:13:00;;;;;;;;;;;9.40;99.90;;;;;;5065084;28;19931;-72
2022/12/23 03:15:27;;;;;;;;;;;9.30;99.90;;;;;;5086901;28;19929;-73
2022/12/23 03:17:58;;;;;;;;;;;9.40;99.90;;;;;;5052427;28;19924;-72
2022/12/23 03:20:48;;;;;;;;;;;9.40;99.90;;;;;;5058249;28;19928;-72
2022/12/23 03:23:18;;;;;;;;;;;9.40;99.90;;;;;;5053578;28;19928;-72
2022/12/23 03:26:05;;;;;;;;;;;9.50;99.90;;;;;;5048445;28;19924;-73
2022/12/23 03:28:37;;;;;;;;;;;9.50;99.90;;;;;;5055792;28;19931;-74
2022/12/23 03:31:05;;;;;;;;;;;9.50;99.90;;;;;;5059348;28;19924;-73
2022/12/23 03:33:34;;;;;;;;;;;9.50;99.90;;;;;;5032229;28;20011;-73
2022/12/23 03:36:13;;;;;;;;;;;9.50;99.90;;;;;;5041520;28;19960;-74
2022/12/23 03:38:43;;;;;;;;;;;9.50;99.90;;;;;;5023725;28;19925;-73
2022/12/23 03:41:25;;;;;;;;;;;9.50;99.90;;;;;;5034807;28;20685;-74
2022/12/23 03:43:59;;;;;;;;;;;9.60;99.90;;;;;;5052746;28;19986;-74
2022/12/23 03:46:35;;;;;;;;;;;9.50;99.90;;;;;;5054199;28;19928;-73
2022/12/23 03:49:16;;;;;;;;;;;9.60;99.90;;;;;;5045311;28;19936;-74
2022/12/23 03:52:56;;;;;;;;;;;9.60;99.90;;;;;;5052274;28;19931;-74
2022/12/23 03:56:08;;;;;;;;;;;9.60;99.90;;;;;;5053862;28;19921;-74
2022/12/23 03:59:45;;;;;;;;;;;9.60;99.90;;;;;;5040660;28;19931;-74
2022/12/23 04:03:33;;;;;;;;;;;9.60;99.90;;;;;;5072042;28;20005;-73
2022/12/23 04:07:21;;;;;;;;;;;9.60;99.90;;;;;;5049641;28;20018;-73
2022/12/23 04:10:52;;;;;;;;;;;9.60;99.90;;;;;;5016265;28;19936;-73
2022/12/23 04:14:48;;;;;;;;;;;9.60;99.90;;;;;;5025307;28;19921;-73
2022/12/23 04:18:33;;;;;;;;;;;9.70;99.90;;;;;;5010488;28;19922;-74
2022/12/23 04:22:32;;;;;;;;;;;9.70;99.90;;;;;;5020275;28;20462;-73
2022/12/23 04:26:29;;;;;;;;;;;9.80;99.90;;;;;;5010900;28;19976;-73
2022/12/23 04:30:22;;;;;;;;;;;9.90;99.90;;;;;;5060275;28;20509;-73
2022/12/23 04:34:20;;;;;;;;;;;9.90;99.90;;;;;;5072794;28;19925;-74
2022/12/23 04:38:26;;;;;;;;;;;9.70;99.90;;;;;;5054419;28;19932;-74
2022/12/23 04:41:48;;;;;;;;;;;9.70;99.90;;;;;;5060544;28;19936;-73
2022/12/23 04:44:17;;;;;;;;;;;9.70;99.90;;;;;;5045894;28;19925;-73
2022/12/23 04:46:46;;;;;;;;;;;9.70;99.90;;;;;;5035117;28;19951;-73
2022/12/23 04:49:15;;;;;;;;;;;9.80;99.90;;;;;;5047500;28;19924;-73
2022/12/23 04:51:58;;;;;;;;;;;9.80;99.90;;;;;;5037446;28;19974;-73
2022/12/23 04:54:28;;;;;;;;;;;9.80;99.90;;;;;;5059995;28;19925;-73
2022/12/23 04:56:56;;;;;;;;;;;9.80;99.90;;;;;;5036883;28;19925;-73
2022/12/23 04:59:25;;;;;;;;;;;9.80;99.90;;;;;;5032395;28;19925;-73
2022/12/23 05:01:54;;;;;;;;;;;9.90;99.90;;;;;;5037511;28;20019;-74
2022/12/23 05:04:23;;;;;;;;;;;9.90;99.90;;;;;;5042791;28;19925;-74
2022/12/23 05:06:52;;;;;;;;;;;9.90;99.90;;;;;;5048111;28;19959;-73
2022/12/23 05:09:22;;;;;;;;;;;9.90;99.90;;;;;;5030501;28;19928;-74
2022/12/23 05:12:42;;;;;;;;;;;9.90;99.90;;;;;;5069849;28;20019;-74
2022/12/23 05:16:15;;;;;;;;;;;10.00;99.90;;;;;;5067153;28;19967;-74
2022/12/23 05:18:45;;;;;;;;;;;10.00;99.90;;;;;;5033816;28;20327;-74
2022/12/23 05:21:14;;;;;;;;;;;10.00;99.90;;;;;;5031660;28;19925;-73
2022/12/23 05:23:43;;;;;;;;;;;10.00;99.90;;;;;;5051101;28;19944;-73
2022/12/23 05:26:12;;;;;;;;;;;10.00;99.90;;;;;;5052887;28;19935;-74
2022/12/23 05:28:44;;;;;;;;;;;10.00;99.90;;;;;;5050939;28;19931;-74
2022/12/23 05:31:12;;;;;;;;;;;10.00;99.90;;;;;;5030285;28;20350;-73
2022/12/23 05:33:42;;;;;;;;;;;10.10;99.90;;;;;;5034531;28;19928;-73
2022/12/23 05:36:11;;;;;;;;;;;10.10;99.90;;;;;;5032894;28;20357;-74
2022/12/23 05:38:40;;;;;;;;;;;10.00;99.90;;;;;;5048254;28;19978;-73
2022/12/23 05:41:10;;;;;;;;;;;10.00;99.90;;;;;;5040033;28;19924;-74
2022/12/23 05:43:42;;;;;;;;;;;10.00;99.90;;;;;;5034088;28;19928;-73
2022/12/23 05:46:16;;;;;;;;;;;10.10;99.90;;;;;;5038616;28;20288;-74
2022/12/23 05:48:45;;;;;;;;;;;10.10;99.90;;;;;;5047518;28;19931;-74
2022/12/23 05:51:20;;;;;;;;;;;10.10;99.90;;;;;;5002240;28;19925;-74
2022/12/23 05:53:51;;;;;;;;;;;10.00;99.90;;;;;;5022982;28;19925;-74
2022/12/23 05:56:20;;;;;;;;;;;10.00;99.90;;;;;;5037859;28;19924;-74
2022/12/23 05:58:50;;;;;;;;;;;9.90;99.90;;;;;;5053573;28;19983;-74
2022/12/23 06:01:20;;;;;;;;;;;9.90;99.90;;;;;;5056880;28;20479;-74
2022/12/23 06:03:50;;;;;;;;;;;9.90;99.90;;;;;;5037012;28;19932;-74
2022/12/23 06:06:21;;;;;;;;;;;9.90;99.90;;;;;;5039047;28;20011;-74
2022/12/23 06:08:52;;;;;;;;;;;9.90;99.90;;;;;;5032582;28;19931;-74
2022/12/23 06:11:24;;;;;;;;;;;9.90;99.90;;;;;;5053902;28;19935;-74
2022/12/23 06:13:54;;;;;;;;;;;10.00;99.90;;;;;;5052063;28;20405;-74
2022/12/23 06:16:27;;;;;;;;;;;10.00;99.90;;;;;;5045214;28;20023;-73
2022/12/23 06:19:01;;;;;;;;;;;10.00;99.90;;;;;;5033232;28;19931;-74
2022/12/23 06:21:31;;;;;;;;;;;10.00;99.90;;;;;;5039392;28;19960;-73
2022/12/23 06:24:00;;;;;;;;;;;10.00;99.90;;;;;;5039124;28;20306;-74
2022/12/23 06:26:29;;;;;;;;;;;10.00;99.90;;;;;;5033561;28;20027;-74
2022/12/23 06:29:00;;;;;;;;;;;10.10;99.90;;;;;;5050059;28;20031;-74
2022/12/23 06:31:31;;;;;;;;;;;10.00;99.90;;;;;;5055143;28;19932;-74
2022/12/23 06:34:02;;;;;;;;;;;10.00;99.90;;;;;;5052187;28;19929;-74
2022/12/23 06:36:32;;;;;;;;;;;9.90;99.90;;;;;;5038869;28;20390;-74
2022/12/23 06:39:03;;;;;;;;;;;9.90;99.90;;;;;;5048697;28;19994;-73
2022/12/23 06:41:34;;;;;;;;;;;9.90;99.90;;;;;;5047768;28;19939;-74
2022/12/23 06:44:05;;;;;;;;;;;9.90;99.90;;;;;;5030943;28;19925;-74
2022/12/23 06:46:31;;;;;;;;;;;9.90;99.90;;;;;;5043583;28;19935;-73
2022/12/23 06:49:03;;;;;;;;;;;9.90;99.90;;;;;;5071591;28;19932;-74
2022/12/23 06:51:35;;;;;;;;;;;9.90;99.90;;;;;;5052460;28;19943;-74
2022/12/23 06:54:08;;;;;;;;;;;9.90;99.90;;;;;;5062111;28;20568;-74
2022/12/23 06:56:40;;;;;;;;;;;9.90;99.90;;;;;;5051651;28;19972;-74
2022/12/23 06:59:07;;;;;;;;;;;9.90;99.90;;;;;;5033503;28;20466;-73
2022/12/23 07:01:39;;;;;;;;;;;9.90;99.90;;;;;;5032949;28;19993;-74
2022/12/23 07:04:05;;;;;;;;;;;9.90;99.90;;;;;;5053877;28;20410;-73
2022/12/23 07:06:32;;;;;;;;;;;9.90;99.90;;;;;;5051277;28;19936;-74
2022/12/23 07:08:59;;;;;;;;;;;9.90;99.90;;;;;;5048678;28;19924;-73
2022/12/23 07:11:31;;;;;;;;;;;9.90;99.90;;;;;;5032067;28;20266;-73
2022/12/23 07:14:03;;;;;;;;;;;9.90;99.90;;;;;;5066848;28;19928;-74
2022/12/23 07:16:34;;;;;;;;;;;9.90;99.90;;;;;;5050182;28;20558;-74
2022/12/23 07:19:02;;;;;;;;;;;9.90;99.90;;;;;;5050135;28;19928;-74
2022/12/23 07:21:35;;;;;;;;;;;9.90;99.90;;;;;;5070605;28;19971;-73
2022/12/23 07:24:02;;;;;;;;;;;9.90;99.90;;;;;;5049870;28;19924;-73
2022/12/23 07:26:34;;;;;;;;;;;9.90;99.90;;;;;;5046860;28;20387;-74
2022/12/23 07:29:06;;;;;;;;;;;9.90;99.90;;;;;;5048770;28;19979;-74
2022/12/23 07:31:33;;;;;;;;;;;9.90;99.90;;;;;;5033592;28;19951;-73
2022/12/23 07:33:59;;;;;;;;;;;10.00;99.90;;;;;;5050964;28;19925;-73
2022/12/23 07:36:31;;;;;;;;;;;10.00;99.90;;;;;;5033925;28;19936;-74
2022/12/23 07:39:03;;;;;;;;;;;10.00;99.90;;;;;;5065632;28;19928;-73
2022/12/23 07:41:29;;;;;;;;;;;10.00;99.90;;;;;;5049396;28;19936;-73
2022/12/23 07:44:05;;;;;;;;;;;10.00;99.90;;;;;;5054495;28;19931;-73
2022/12/23 07:46:32;;;;;;;;;;;10.00;99.90;;;;;;5058505;28;19935;-73
2022/12/23 07:48:58;;;;;;;;;;;10.00;99.90;;;;;;5051680;28;20546;-74
2022/12/23 07:51:30;;;;;;;;;;;10.00;99.90;;;;;;5056669;28;20011;-74
2022/12/23 07:54:02;;;;;;;;;;;10.00;99.90;;;;;;5042467;28;19978;-74
2022/12/23 07:56:33;;;;;;;;;;;10.00;99.90;;;;;;5069158;28;19924;-74
2022/12/23 07:59:05;;;;;;;;;;;10.00;99.90;;;;;;5032620;28;19925;-74
2022/12/23 08:01:32;;;;;;;;;;;10.00;99.90;;;;;;5066895;28;19935;-74
2022/12/23 08:03:58;;;;;;;;;;;10.00;99.90;;;;;;5035072;28;20031;-74
2022/12/23 08:06:33;;;;;;;;;;;10.00;99.90;;;;;;5029868;28;19947;-74
2022/12/23 08:09:05;;;;;;;;;;;10.00;99.90;;;;;;5047430;28;19925;-74
2022/12/23 08:11:37;;;;;;;;;;;10.00;99.90;;;;;;5048310;28;20033;-74
2022/12/23 08:14:08;;;;;;;;;;;10.00;99.90;;;;;;5067101;28;19925;-74
2022/12/23 08:16:40;;;;;;;;;;;10.00;99.90;;;;;;5057656;28;19946;-74
2022/12/23 08:19:06;;;;;;;;;;;10.00;99.90;;;;;;5044057;28;19925;-73
2022/12/23 08:21:38;;;;;;;;;;;10.00;99.90;;;;;;5064566;28;19938;-74
2022/12/23 08:24:09;;;;;;;;;;;10.00;99.90;;;;;;5062014;28;19924;-73
2022/12/23 08:26:36;;;;;;;;;;;10.00;99.90;;;;;;5065828;28;19958;-73
2022/12/23 08:29:08;;;;;;;;;;;10.10;99.90;;;;;;5062938;28;19924;-74
2022/12/23 08:31:39;;;;;;;;;;;10.20;99.90;;;;;;5065792;28;19935;-73
2022/12/23 08:34:11;;;;;;;;;;;10.20;99.90;;;;;;5068789;28;19932;-74
2022/12/23 08:36:42;;;;;;;;;;;10.20;99.90;;;;;;5034995;28;19929;-73
2022/12/23 08:39:14;;;;;;;;;;;10.20;99.90;;;;;;5049210;28;20371;-74
2022/12/23 08:41:47;;;;;;;;;;;10.30;99.90;;;;;;5053444;28;19925;-74
2022/12/23 08:44:18;;;;;;;;;;;10.30;99.90;;;;;;5053937;28;19990;-74
2022/12/23 08:46:50;;;;;;;;;;;10.40;99.90;;;;;;5053781;28;19951;-74
2022/12/23 08:49:22;;;;;;;;;;;10.40;99.90;;;;;;5037556;28;19972;-74
2022/12/23 08:51:48;;;;;;;;;;;10.40;99.90;;;;;;5055710;28;20341;-74
2022/12/23 08:54:21;;;;;;;;;;;10.40;99.90;;;;;;5060830;28;20448;-74
2022/12/23 08:56:52;;;;;;;;;;;10.40;99.90;;;;;;5037089;28;20343;-75
2022/12/23 08:59:24;;;;;;;;;;;10.50;99.90;;;;;;5061669;28;19929;-73
2022/12/23 09:01:50;;;;;;;;;;;10.50;99.90;;;;;;5072270;28;19932;-74
2022/12/23 09:04:22;;;;;;;;;;;10.40;99.90;;;;;;5040258;28;19998;-74
2022/12/23 09:06:54;;;;;;;;;;;10.40;99.90;;;;;;5049920;28;19925;-73
2022/12/23 09:09:20;;;;;;;;;;;10.50;99.90;;;;;;5032268;28;19970;-73
2022/12/23 09:11:52;;;;;;;;;;;10.50;99.90;;;;;;5037131;28;19993;-73
2022/12/23 09:14:23;;;;;;;;;;;10.50;99.90;;;;;;5021887;28;19970;-74
2022/12/23 09:16:55;;;;;;;;;;;10.50;99.90;;;;;;5053308;28;19932;-74
2022/12/23 09:19:26;;;;;;;;;;;10.50;99.90;;;;;;5031680;28;19981;-74
2022/12/23 09:21:58;;;;;;;;;;;10.60;99.90;;;;;;5036999;28;19924;-74
2022/12/23 09:24:31;;;;;;;;;;;10.60;99.90;;;;;;5047426;28;19978;-74
2022/12/23 09:27:03;;;;;;;;;;;10.60;99.90;;;;;;5050769;28;19929;-74
2022/12/23 09:29:29;;;;;;;;;;;10.70;99.90;;;;;;5045672;28;20271;-74
2022/12/23 09:32:01;;;;;;;;;;;10.70;99.90;;;;;;5051773;28;19924;-75
2022/12/23 09:34:32;;;;;;;;;;;10.70;99.90;;;;;;5032384;28;19929;-74
2022/12/23 09:36:59;;;;;;;;;;;10.70;99.90;;;;;;5041919;28;19908;-73
2022/12/23 09:39:31;;;;;;;;;;;10.70;99.90;;;;;;5012727;28;20110;-73
2022/12/23 09:42:10;;;;;;;;;;;10.70;99.90;;;;;;5038827;28;19925;-75
2022/12/23 09:44:57;;;;;;;;;;;10.70;99.90;;;;;;5036877;28;19925;-73
2022/12/23 09:47:26;;;;;;;;;;;10.80;99.90;;;;;;5047872;28;19931;-73
2022/12/23 09:49:59;;;;;;;;;;;10.70;99.90;;;;;;5024247;28;19932;-73
2022/12/23 09:53:00;;;;;;;;;;;10.70;99.90;;;;;;5051890;28;19956;-73
2022/12/23 09:55:58;;;;;;;;;;;10.70;99.90;;;;;;5003673;28;19928;-73
2022/12/23 09:58:42;;;;;;;;;;;10.70;99.90;;;;;;5035548;28;20405;-72
2022/12/23 10:01:17;;;;;;;;;;;10.70;99.90;;;;;;5035064;28;20020;-73
2022/12/23 10:04:05;;;;;;;;;;;10.70;99.90;;;;;;5031583;28;19924;-73
2022/12/23 10:06:33;;;;;;;;;;;10.70;99.90;;;;;;5035891;28;19960;-73
2022/12/23 10:09:04;;;;;;;;;;;10.70;99.90;;;;;;5047386;28;19960;-73
2022/12/23 10:11:41;;;;;;;;;;;10.70;99.90;;;;;;5047448;28;19929;-73
2022/12/23 10:14:22;;;;;;;;;;;10.70;99.90;;;;;;5030960;28;19928;-73
2022/12/23 10:16:56;;;;;;;;;;;10.70;99.90;;;;;;5044246;28;19932;-73
2022/12/23 10:19:31;;;;;;;;;;;10.70;99.90;;;;;;5035507;28;19933;-73
2022/12/23 10:22:08;;;;;;;;;;;10.80;99.90;;;;;;5057650;28;19970;-73
2022/12/23 10:24:40;;;;;;;;;;;10.80;99.90;;;;;;5044116;28;20015;-73
2022/12/23 10:27:12;;;;;;;;;;;10.80;99.90;;;;;;5049186;28;20024;-75
2022/12/23 10:29:42;;;;;;;;;;;10.90;99.90;;;;;;5046938;28;19931;-76
2022/12/23 10:32:29;;;;;;;;;;;10.90;99.90;;;;;;5044433;28;19982;-74
2022/12/23 10:35:02;;;;;;;;;;;11.00;99.90;;;;;;5058441;28;19932;-72
2022/12/23 10:37:44;;;;;;;;;;;11.00;99.90;;;;;;5040992;28;19928;-73
2022/12/23 10:40:21;;;;;;;;;;;11.00;99.90;;;;;;5042462;28;19924;-71
2022/12/23 10:42:59;;;;;;;;;;;11.00;99.90;;;;;;5059929;28;19924;-73
2022/12/23 10:45:28;;;;;;;;;;;11.00;99.90;;;;;;5042755;28;19929;-74
2022/12/23 10:48:02;;;;;;;;;;;11.10;99.90;;;;;;5069252;28;19939;-73
2022/12/23 10:50:39;;;;;;;;;;;11.10;99.90;;;;;;5045401;28;20317;-73
2022/12/23 10:53:10;;;;;;;;;;;11.10;99.90;;;;;;5051855;28;20292;-72
2022/12/23 10:55:38;;;;;;;;;;;11.10;99.90;;;;;;5046970;28;19930;-73
2022/12/23 10:58:14;;;;;;;;;;;11.10;99.90;;;;;;5057571;28;20020;-72
2022/12/23 11:01:09;;;;;;;;;;;11.10;99.90;;;;;;5054028;28;20046;-73
2022/12/23 11:04:02;;;;;;;;;;;11.20;99.90;;;;;;5050751;28;19925;-72
2022/12/23 11:06:31;;;;;;;;;;;11.20;99.90;;;;;;5039129;28;19924;-72
2022/12/23 11:09:02;;;;;;;;;;;11.20;99.90;;;;;;5033803;28;19932;-72
2022/12/23 11:11:49;;;;;;;;;;;11.20;99.90;;;;;;5053231;28;19974;-73
2022/12/23 11:14:33;;;;;;;;;;;11.20;99.90;;;;;;5051491;28;19974;-72
2022/12/23 11:17:05;;;;;;;;;;;11.20;99.90;;;;;;5033551;28;19929;-73
2022/12/23 11:19:35;;;;;;;;;;;11.20;99.90;;;;;;5045022;28;19925;-72
2022/12/23 11:22:18;;;;;;;;;;;11.20;99.90;;;;;;5051751;28;19931;-72
2022/12/23 11:24:50;;;;;;;;;;;11.20;99.90;;;;;;5033421;28;20331;-72
2022/12/23 11:27:26;;;;;;;;;;;11.20;99.90;;;;;;5038007;28;20290;-73
2022/12/23 11:29:56;;;;;;;;;;;11.20;99.90;;;;;;5029751;28;19924;-72
2022/12/23 11:32:27;;;;;;;;;;;11.20;99.90;;;;;;5021934;28;19931;-73
2022/12/23 11:34:56;;;;;;;;;;;11.10;99.90;;;;;;5055991;28;19931;-72
2022/12/23 11:37:55;;;;;;;;;;;11.10;99.90;;;;;;5033213;28;20345;-72
2022/12/23 11:40:36;;;;;;;;;;;11.10;99.90;;;;;;5038195;28;20279;-72
2022/12/23 11:43:14;;;;;;;;;;;11.10;99.90;;;;;;5054006;28;20375;-72
2022/12/23 11:45:46;;;;;;;;;;;11.10;99.90;;;;;;5038905;28;20535;-73
2022/12/23 11:48:28;;;;;;;;;;;11.10;99.90;;;;;;5053148;28;20418;-72
2022/12/23 11:50:57;;;;;;;;;;;11.00;99.90;;;;;;5035197;28;19924;-72
2022/12/23 11:53:30;;;;;;;;;;;11.00;99.90;;;;;;5052383;28;19974;-72
2022/12/23 11:56:04;;;;;;;;;;;11.00;99.90;;;;;;5055100;28;19932;-72
2022/12/23 11:58:45;;;;;;;;;;;11.00;99.90;;;;;;5036673;28;19925;-73
2022/12/23 12:01:21;;;;;;;;;;;11.00;99.90;;;;;;5030881;28;19925;-72
2022/12/23 12:03:55;;;;;;;;;;;11.00;99.90;;;;;;5039738;28;19924;-73
2022/12/23 12:06:25;;;;;;;;;;;11.00;99.90;;;;;;5049849;28;19931;-72
2022/12/23 12:08:56;;;;;;;;;;;10.90;99.90;;;;;;5071283;28;19963;-73
2022/12/23 12:11:28;;;;;;;;;;;11.00;99.90;;;;;;5050977;28;19925;-73
2022/12/23 12:13:59;;;;;;;;;;;11.00;99.90;;;;;;5050718;28;19975;-72
2022/12/23 12:16:30;;;;;;;;;;;11.00;99.90;;;;;;5039551;28;20037;-72
2022/12/23 12:19:20;;;;;;;;;;;11.00;99.90;;;;;;5049567;28;20365;-73
2022/12/23 12:21:53;;;;;;;;;;;10.90;99.90;;;;;;5050557;28;19978;-72
2022/12/23 12:24:37;;;;;;;;;;;10.90;99.90;;;;;;5031719;28;19925;-72
2022/12/23 12:27:09;;;;;;;;;;;10.90;99.90;;;;;;5043650;28;19932;-73
2022/12/23 12:29:52;;;;;;;;;;;10.90;99.90;;;;;;5039977;28;19931;-73
2022/12/23 12:32:39;;;;;;;;;;;10.90;99.90;;;;;;5046648;28;19925;-73
2022/12/23 12:35:22;;;;;;;;;;;10.90;99.90;;;;;;5036540;28;19932;-73
2022/12/23 12:38:06;;;;;;;;;;;10.80;99.90;;;;;;5057894;28;19963;-72
2022/12/23 12:40:48;;;;;;;;;;;10.80;99.90;;;;;;5034608;28;19924;-73
2022/12/23 12:43:29;;;;;;;;;;;10.70;99.90;;;;;;5036246;28;19967;-71
2022/12/23 12:46:00;;;;;;;;;;;10.70;99.90;;;;;;5034707;28;19925;-72
2022/12/23 12:48:32;;;;;;;;;;;10.70;99.90;;;;;;5032249;28;19997;-71
2022/12/23 12:51:19;;;;;;;;;;;10.80;99.90;;;;;;5035226;28;19925;-72
2022/12/23 12:54:09;;;;;;;;;;;10.70;99.90;;;;;;5048256;28;19925;-71
2022/12/23 12:56:48;;;;;;;;;;;10.70;99.90;;;;;;5040658;28;19970;-72
2022/12/23 12:59:19;;;;;;;;;;;10.70;99.90;;;;;;5042532;28;20473;-71
2022/12/23 13:01:52;;;;;;;;;;;10.60;99.90;;;;;;5034799;28;19935;-71
2022/12/23 13:04:21;;;;;;;;;;;10.60;99.90;;;;;;5052489;28;20109;-72
2022/12/23 13:07:04;;;;;;;;;;;10.60;99.90;;;;;;5036121;28;20047;-72
2022/12/23 13:09:57;;;;;;;;;;;10.60;99.90;;;;;;5047348;28;20448;-72
2022/12/23 13:12:55;;;;;;;;;;;10.60;99.90;;;;;;5044874;28;19928;-73
2022/12/23 13:15:40;;;;;;;;;;;10.50;99.90;;;;;;5022651;28;20436;-72
2022/12/23 13:18:18;;;;;;;;;;;10.50;99.90;;;;;;5017121;28;19925;-71
2022/12/23 13:20:58;;;;;;;;;;;10.40;99.90;;;;;;5050535;28;20005;-73
2022/12/23 13:23:52;;;;;;;;;;;10.40;99.90;;;;;;5038937;28;19974;-72
2022/12/23 13:26:28;;;;;;;;;;;10.40;99.90;;;;;;5031507;28;20391;-71
2022/12/23 13:29:25;;;;;;;;;;;10.30;99.90;;;;;;5049532;28;19925;-72
2022/12/23 13:32:26;;;;;;;;;;;10.30;99.90;;;;;;5028536;28;19925;-72
2022/12/23 13:35:02;;;;;;;;;;;10.30;99.90;;;;;;5035951;28;19934;-73
2022/12/23 13:37:43;;;;;;;;;;;10.30;99.90;;;;;;5037526;28;19932;-72
2022/12/23 13:40:22;;;;;;;;;;;10.30;99.90;;;;;;5041548;28;20295;-72
2022/12/23 13:42:53;;;;;;;;;;;10.30;99.90;;;;;;5046770;28;20283;-72
2022/12/23 13:45:33;;;;;;;;;;;10.30;99.90;;;;;;5027093;28;19985;-73
2022/12/23 13:48:13;;;;;;;;;;;10.30;99.90;;;;;;5037094;28;20410;-72
2022/12/23 13:50:57;;;;;;;;;;;10.20;99.90;;;;;;5051870;28;20382;-73
2022/12/23 13:53:34;;;;;;;;;;;10.20;99.90;;;;;;5052948;28;20419;-73
2022/12/23 13:56:22;;;;;;;;;;;10.20;99.90;;;;;;5052884;28;19933;-73
2022/12/23 13:59:01;;;;;;;;;;;10.20;99.90;;;;;;5035103;28;19956;-74
2022/12/23 14:01:33;;;;;;;;;;;10.20;99.90;;;;;;5069417;28;19948;-72
2022/12/23 14:04:19;;;;;;;;;;;10.20;99.90;;;;;;5023914;28;19932;-72
2022/12/23 14:06:48;;;;;;;;;;;10.20;99.90;;;;;;5040360;28;19925;-73
2022/12/23 14:09:27;;;;;;;;;;;10.20;99.90;;;;;;5037453;28;19959;-72
2022/12/23 14:11:55;;;;;;;;;;;10.20;99.90;;;;;;5052539;28;20390;-72
2022/12/23 14:14:24;;;;;;;;;;;10.20;99.90;;;;;;5032753;28;19924;-72
2022/12/23 14:17:04;;;;;;;;;;;10.20;99.90;;;;;;5056743;28;20038;-72
2022/12/23 14:19:44;;;;;;;;;;;10.20;99.90;;;;;;5051797;28;19928;-72
2022/12/23 14:22:27;;;;;;;;;;;10.20;99.90;;;;;;5047262;28;20007;-73
2022/12/23 14:25:17;;;;;;;;;;;10.20;99.90;;;;;;5037692;28;20302;-73
2022/12/23 14:27:57;;;;;;;;;;;10.20;99.90;;;;;;5053463;28;19974;-72
2022/12/23 14:30:26;;;;;;;;;;;10.20;99.90;;;;;;5053075;28;19928;-72
2022/12/23 14:33:02;;;;;;;;;;;10.30;99.90;;;;;;5054600;28;19924;-73
2022/12/23 14:36:14;;;;;;;;;;;10.30;99.90;;;;;;5055453;28;19913;-76
2022/12/23 14:39:03;;;;;;;;;;;10.30;99.90;;;;;;5033422;28;19925;-72
2022/12/23 14:41:50;;;;;;;;;;;10.30;99.90;;;;;;5053837;28;19928;-73
2022/12/23 14:44:40;;;;;;;;;;;10.30;99.90;;;;;;5039772;28;19932;-74
2022/12/23 14:50:35;;;;;;;;;;;10.30;99.90;;;;;;5050162;28;19936;-73
2022/12/23 14:53:19;;;;;;;;;;;10.30;99.90;;;;;;5039306;28;19978;-73
2022/12/23 14:55:48;;;;;;;;;;;10.30;99.90;;;;;;5038823;28;19924;-73
2022/12/23 14:58:21;;;;;;;;;;;10.40;99.90;;;;;;5025582;28;19932;-73
2022/12/23 15:00:51;;;;;;;;;;;10.40;99.90;;;;;;5032693;28;19936;-74
2022/12/23 15:03:19;;;;;;;;;;;10.50;99.90;;;;;;5046965;28;20283;-73
2022/12/23 15:05:49;;;;;;;;;;;10.40;99.90;;;;;;5039528;28;20365;-73
2022/12/23 15:08:24;;;;;;;;;;;10.50;99.90;;;;;;5031606;28;20330;-73
2022/12/23 15:10:53;;;;;;;;;;;10.60;99.90;;;;;;5052896;28;19971;-74
2022/12/23 15:13:27;;;;;;;;;;;10.60;99.90;;;;;;5052661;28;19991;-73
2022/12/23 15:15:55;;;;;;;;;;;10.70;99.90;;;;;;5055863;28;19929;-73
2022/12/23 15:18:23;;;;;;;;;;;10.70;99.90;;;;;;5019812;28;19924;-73
2022/12/23 15:21:09;;;;;;;;;;;10.80;99.90;;;;;;5041368;28;20027;-73
2022/12/23 15:23:49;;;;;;;;;;;10.80;99.90;;;;;;5063077;28;19924;-72
2022/12/23 15:26:18;;;;;;;;;;;10.90;99.90;;;;;;5051211;28;19925;-73
2022/12/23 15:28:50;;;;;;;;;;;10.90;99.90;;;;;;5071578;28;20009;-72
2022/12/23 15:31:31;;;;;;;;;;;10.90;99.90;;;;;;5053421;28;19978;-73
2022/12/23 15:34:03;;;;;;;;;;;11.00;99.90;;;;;;5034817;28;20369;-74
2022/12/23 15:36:36;;;;;;;;;;;11.10;99.90;;;;;;5019164;28;19967;-73
2022/12/23 15:39:28;;;;;;;;;;;11.10;99.90;;;;;;5034843;28;19932;-73
2022/12/23 15:41:56;;;;;;;;;;;11.10;99.90;;;;;;5033928;28;19935;-73
2022/12/23 15:44:33;;;;;;;;;;;11.20;99.90;;;;;;5038249;28;19924;-74
2022/12/23 15:47:04;;;;;;;;;;;11.30;99.90;;;;;;5042024;28;19925;-74
2022/12/23 15:49:37;;;;;;;;;;;11.30;99.90;;;;;;5042067;28;19924;-74
2022/12/23 15:52:07;;;;;;;;;;;11.30;99.90;;;;;;5035867;28;19924;-74
2022/12/23 15:54:43;;;;;;;;;;;11.30;99.90;;;;;;5060657;28;20272;-75